• Join FlightAware (Why Join?)
  • Login
  • US Flag 
11:14PM EDT


 

Airport Tracker/Info


-or-


 

Live Flight TrackerFlight Track Log ✈ SWA2975 ✈ 03-Jul-2013 ✈ KDEN - KSLC

Flight Track Log - Related Links

Times and Time Zones

All times are in EDT time to prevent confusion due to time zone crossing. See the SWA2975 flight status page for this flight to view local times or setup timezone preferences in your user account.

Time Position Orientation Groundspeed Altitude Reporting Facility
EDT Latitude Longitude Course Direction KTS MPH feet Rate Location/Type
04:05PM 39.8650 -104.6810 250° West 17 20  Level FlightAware
04:05PM 39.8640 -104.6830 237° Southwest 29 33 1,080 Level FlightAware
04:05PM 39.8640 -104.6840 270° West 32 37 1,200 Level FlightAware
04:06PM 39.8630 -104.6840 180° South 16 18 1,200 Level FlightAware
04:06PM 39.8620 -104.6840 180° South 16 18 1,260 Level FlightAware
04:07PM 39.8580 -104.6840 180° South 20 23 1,320 Level FlightAware
04:08PM 39.8530 -104.6840 180° South 21 24 1,560 Level FlightAware
04:08PM 39.8520 -104.6840 180° South 34 39 1,920 Level FlightAware
04:08PM 39.8520 -104.6850 270° West 17 20 2,100 Level FlightAware
04:08PM 39.8520 -104.6890 270° West 22 25 2,160 Level FlightAware
04:09PM 39.8520 -104.6920 270° West 18 21 2,580 Level FlightAware
04:11PM 39.9080 -104.7170 341° North 220 253 7,000 2,820 Climbing FlightAware
04:12PM 39.9180 -104.7560 288° West 254 292 7,700 1,920 Climbing FlightAware
04:12PM 39.9280 -104.7930 289° West 268 308 8,700 2,100 Climbing FlightAware
04:12PM 39.9400 -104.8420 288° West 300 345 9,600 1,920 Climbing FlightAware
04:13PM 39.9490 -104.9040 281° West 328 377 10,800 2,340 Climbing FlightAware
04:14PM 39.9520 -104.9960 272° West 347 399 12,700 2,640 Climbing FlightAware
04:14PM 39.9550 -105.0760 273° West 354 407 14,500 2,580 Climbing FlightAware
04:15PM 39.9640 -105.1610 278° West 365 420 16,100 2,460 Climbing FlightAware
04:16PM 39.9760 -105.2540 280° West 376 433 17,900 2,520 Climbing FlightAware
04:16PM 39.9860 -105.3440 278° West 384 442 19,600 2,340 Climbing FlightAware
04:17PM 39.9980 -105.4330 280° West 394 453 21,000 1,980 Climbing FlightAware
04:18PM 40.0120 -105.5260 281° West 406 467 22,200 2,340 Climbing FlightAware
04:18PM 40.0350 -105.6290 286° West 403 464 24,300 2,580 Climbing FlightAware
04:19PM 40.0490 -105.7200 281° West 402 463 25,800 1,200 Climbing FlightAware
04:20PM 40.0660 -105.8290 282° West 425 489 26,000 300 Climbing FlightAware
04:21PM 40.0700 -105.9690 272° West 450 518 26,300 600 Climbing FlightAware
04:22PM 40.0570 -106.0930 262° West 457 526 27,000 480 Climbing FlightAware
04:22PM 40.0440 -106.1900 260° West 458 527 27,000  Level FlightAware
04:23PM 40.0250 -106.3000 257° West 463 533 27,000  Level FlightAware
04:23PM 40.0000 -106.4110 254° West 467 537 27,000  Level FlightAware
04:24PM 39.9750 -106.5020 250° West 469 540 27,000 600 Level FlightAware
04:25PM 39.9430 -106.6140 250° West 472 543 27,800 1,320 Climbing FlightAware
04:26PM 39.9090 -106.7330 250° West 477 549 29,000 1,440 Climbing FlightAware
04:26PM 39.8800 -106.8300 249° West 485 558 29,800 1,200 Climbing FlightAware
04:27PM 39.8500 -106.9280 248° West 492 566 30,500 1,320 Climbing FlightAware
04:28PM 39.8260 -107.0620 257° West 465 535 31,700 1,500 Climbing FlightAware
04:28PM 39.8310 -107.1750 273° West 454 522 32,800 1,500 Climbing FlightAware
04:29PM 39.8430 -107.2940 278° West 447 514 33,900 1,740 Climbing FlightAware
04:30PM 39.8570 -107.4070 279° West 432 497 35,300 1,200 Climbing FlightAware
04:31PM 39.8760 -107.5590 279° West 434 499 36,000 360 Climbing FlightAware
04:32PM 39.8910 -107.6900 279° West 439 505 36,000  Level FlightAware
04:32PM 39.9010 -107.7780 278° West 437 503 36,000  Level FlightAware
04:33PM 39.9170 -107.9150 279° West 442 509 36,000  Level FlightAware
04:34PM 39.9280 -108.0130 278° West 445 512 36,000  Level FlightAware
04:34PM 39.9410 -108.1230 279° West 449 517 36,000  Level FlightAware
04:35PM 39.9540 -108.2470 278° West 449 517 36,000  Level FlightAware
04:36PM 39.9700 -108.3890 278° West 443 510 36,000  Level FlightAware
04:37PM 39.9800 -108.4770 278° West 439 505 36,000  Level FlightAware
04:37PM 39.9920 -108.5880 278° West 441 507 36,000  Level FlightAware
04:38PM 40.0050 -108.7020 279° West 443 510 36,000  Level FlightAware
04:38PM 40.0150 -108.7950 278° West 442 509 36,000  Level FlightAware
04:39PM 40.0260 -108.9060 277° West 443 510 36,000  Level FlightAware
04:40PM 40.0360 -109.0020 278° West 445 512 36,000  Level FlightAware
04:41PM 40.0490 -109.1210 278° West 446 513 36,000  Level FlightAware
04:41PM 40.0620 -109.2440 278° West 447 514 36,000  Level FlightAware
04:42PM 40.0720 -109.3490 277° West 448 516 36,000  Level FlightAware
04:43PM 40.0810 -109.4360 278° West 448 516 36,000 -300 Level FlightAware
04:44PM 40.0980 -109.6030 278° West 445 512 35,600 -720 Descending FlightAware
04:44PM 40.1080 -109.7000 278° West 448 516 34,900 -1,080 Descending FlightAware
04:45PM 40.1200 -109.8200 277° West 447 514 34,200 -1,080 Descending FlightAware
04:46PM 40.1290 -109.9190 277° West 439 505 33,500 -1,080 Descending FlightAware
04:46PM 40.1420 -110.0180 280° West 433 498 32,900 -960 Descending FlightAware
04:47PM 40.1660 -110.1260 286° West 425 489 32,200 -1,020 Descending FlightAware
04:48PM 40.1880 -110.2230 287° West 423 487 31,500 -1,020 Descending FlightAware
04:48PM 40.2090 -110.3090 288° West 420 483 30,900 -1,080 Descending FlightAware
04:49PM 40.2360 -110.4210 288° West 416 479 30,100 -720 Descending FlightAware
04:50PM 40.2550 -110.5040 287° West 409 471 30,000 -540 Descending FlightAware
04:50PM 40.2840 -110.6420 285° West 411 473 29,300 -660 Descending FlightAware
04:51PM 40.2920 -110.7200 278° West 410 472 29,000 -240 Descending FlightAware
04:52PM 40.3010 -110.8010 278° West 410 472 29,000 -3,120 Level FlightAware
04:52PM 40.2860 -110.6680 98° East 25,400 -5,520 Descending FlightAware
04:53PM 40.2960 -110.9620 273° West 402 463 24,400 -1,620 Descending FlightAware
04:54PM 40.2630 -111.0800 250° West 402 463 23,300 -720 Descending FlightAware
04:54PM 40.2400 -111.1460 245° Southwest 402 463 23,300  Level FlightAware
04:55PM 40.2160 -111.2160 246° West 402 463 23,300  Level FlightAware
04:55PM 40.1920 -111.2880 246° West 402 463 23,300  Level FlightAware
04:56PM 40.1610 -111.3790 246° West 402 463 23,300  Level FlightAware
04:57PM 40.1300 -111.4700 246° West 402 463 23,300 -3,420 Level FlightAware
04:58PM 40.1840 -111.6860 288° West 325 374 15,700 -3,960 Descending FlightAware
04:59PM 40.2360 -111.7580 313° West 318 366 14,300 -960 Descending FlightAware
05:00PM 40.2700 -111.8050 313° West 318 366 14,300 -1,620 Level FlightAware
05:01PM 40.3320 -111.8720 321° Northwest 309 356 12,000 -1,800 Descending FlightAware
05:01PM 40.3670 -111.9090 321° Northwest 308 354 11,800 -720 Descending FlightAware
05:02PM 40.4450 -111.9370 345° North 289 333 10,900 -1,320 Descending FlightAware
05:03PM 40.5050 -111.9420 356° North 275 316 9,600 -1,800 Descending FlightAware
05:03PM 40.5360 -111.9470 353° North 278 320 8,900 -1,440 Descending FlightAware
05:04PM 40.5930 -111.9560 353° North 259 298 8,000 -1,020 Descending FlightAware
05:04PM 40.6050 -111.9570 356° North 242 278 8,000 -780 Level FlightAware
05:05PM 40.6490 -111.9510 North 192 221 7,300 -1,260 Descending FlightAware
05:06PM 40.6710 -111.9500 North 181 208 6,500 -1,620 Descending FlightAware
05:06PM 40.6910 -111.9620 336° Northwest 170 196 5,900 -1,320 Descending FlightAware
05:06PM 40.7020 -111.9640 352° North 163 188 5,600 -1,080 Descending FlightAware
05:07PM 40.7340 -111.9680 355° North 166 191 4,900 -960 Descending FlightAware
05:07PM 40.7560 -111.9710 354° North 169 194 4,500 -780 Descending FlightAware
05:08PM 40.7660 -111.9720 356° North 163 188 4,400 -180 Descending FlightAware
05:08PM 40.7810 -111.9740 354° North 163 188 4,400  Level FlightAware
05:16PM 40.7833 -111.9667 North  Level FlightAware Approximate